createdAt,value
2017-03-14T00:00:41.853Z,98.88
2017-03-14T00:01:41.835Z,98.88
2017-03-14T00:02:41.809Z,98.69
2017-03-14T00:03:41.789Z,98.5
2017-03-14T00:04:41.771Z,98.88
2017-03-14T00:05:41.732Z,98.31
2017-03-14T00:06:41.709Z,98.5
2017-03-14T00:07:41.312Z,98.5
2017-03-14T00:08:41.716Z,98.21
2017-03-14T00:09:41.644Z,98.4
2017-03-14T00:10:41.614Z,98.69
2017-03-14T00:11:41.593Z,98.79
2017-03-14T00:12:41.576Z,98.69
2017-03-14T00:13:41.548Z,98.79
2017-03-14T00:14:41.516Z,98.5
2017-03-14T00:15:41.747Z,98.79
2017-03-14T00:16:41.477Z,98.79
2017-03-14T00:17:41.454Z,98.59
2017-03-14T00:18:41.428Z,98.5
2017-03-14T00:19:41.402Z,98.59
2017-03-14T00:20:41.385Z,98.5
2017-03-14T00:21:41.355Z,98.79
2017-03-14T00:22:41.332Z,98.69
2017-03-14T00:23:41.306Z,98.59
2017-03-14T00:24:41.283Z,98.4
2017-03-14T00:25:41.260Z,98.5
2017-03-14T00:26:41.287Z,98.4
2017-03-14T00:27:41.248Z,98.5
2017-03-14T00:28:41.190Z,98.5
2017-03-14T00:29:41.161Z,98.88
2017-03-14T00:30:41.142Z,98.5
2017-03-14T00:31:41.172Z,98.79
2017-03-14T00:32:41.095Z,99.16
2017-03-14T00:33:41.076Z,98.69
2017-03-14T00:34:41.054Z,98.88
2017-03-14T00:35:41.073Z,98.88
2017-03-14T00:36:40.999Z,98.88
2017-03-14T00:37:40.973Z,98.79
2017-03-14T00:38:40.948Z,98.79
2017-03-14T00:39:40.930Z,98.97
2017-03-14T00:40:40.917Z,98.4
2017-03-14T00:41:40.888Z,98.79
2017-03-14T00:42:40.859Z,98.79
2017-03-14T00:43:40.838Z,98.73
2017-03-14T00:44:40.807Z,98.88
2017-03-14T00:45:40.784Z,98.92
2017-03-14T00:46:40.768Z,99.02
2017-03-14T00:47:40.734Z,99.02
2017-03-14T00:48:40.718Z,98.5
2017-03-14T00:49:40.993Z,98.73
2017-03-14T00:50:40.672Z,98.4
2017-03-14T00:51:40.644Z,98.69
2017-03-14T00:52:40.622Z,99.21
2017-03-14T00:53:40.603Z,99.02
2017-03-14T00:54:40.573Z,99.07
2017-03-14T00:55:40.555Z,98.92
2017-03-14T00:56:40.525Z,98.64
2017-03-14T00:57:40.499Z,98.64
2017-03-14T00:58:40.527Z,98.83
2017-03-14T00:59:40.452Z,99.11
2017-03-14T01:00:40.481Z,99.21
2017-03-14T01:01:40.404Z,99.07
2017-03-14T01:02:40.383Z,99.16
2017-03-14T01:03:40.357Z,99.07
2017-03-14T01:04:40.931Z,99.07
2017-03-14T01:05:40.309Z,98.83
2017-03-14T01:06:40.283Z,98.64
2017-03-14T01:07:40.265Z,98.73
2017-03-14T01:08:40.243Z,98.45
2017-03-14T01:09:40.214Z,98.35
2017-03-14T01:10:40.189Z,98.45
2017-03-14T01:11:40.167Z,99.02
2017-03-14T01:12:40.149Z,98.83
2017-03-14T01:13:40.153Z,98.73
2017-03-14T01:14:40.125Z,99.02
2017-03-14T01:15:40.063Z,98.97
2017-03-14T01:16:40.054Z,99.07
2017-03-14T01:17:39.668Z,98.79
2017-03-14T01:18:40.001Z,98.69
2017-03-14T01:19:39.978Z,98.59
2017-03-14T01:20:39.957Z,98.59
2017-03-14T01:21:39.963Z,98.12
2017-03-14T01:22:39.907Z,98.4
2017-03-14T01:23:39.883Z,98.59
2017-03-14T01:24:39.854Z,98.69
2017-03-14T01:25:39.843Z,97.74
2017-03-14T01:26:39.811Z,98.12
2017-03-14T01:27:39.456Z,97.92
2017-03-14T01:28:39.763Z,97.55
2017-03-14T01:29:39.794Z,98.02
2017-03-14T01:30:39.719Z,97.83
2017-03-14T01:31:39.698Z,97.55
2017-03-14T01:32:39.718Z,97.64
2017-03-14T01:33:39.945Z,98.07
2017-03-14T01:34:39.237Z,97.97
2017-03-14T01:35:39.597Z,97.5
2017-03-14T01:36:39.574Z,97.5
2017-03-14T01:37:39.606Z,97.78
2017-03-14T01:38:39.531Z,97.78
2017-03-14T01:39:39.118Z,97.78
2017-03-14T01:40:39.480Z,98.21
2017-03-14T01:41:39.457Z,97.6
2017-03-14T01:42:39.440Z,97.36
2017-03-14T01:43:39.415Z,98.21
2017-03-14T01:44:39.390Z,97.55
2017-03-14T01:45:39.359Z,97.27
2017-03-14T01:46:39.336Z,97.55
2017-03-14T01:47:39.314Z,96.79
2017-03-14T01:48:39.285Z,96.5
2017-03-14T01:49:39.264Z,96.31
2017-03-14T01:50:39.245Z,96.41
2017-03-14T01:51:39.217Z,96.31
2017-03-14T01:52:39.194Z,96.98
2017-03-14T01:53:39.169Z,96.08
2017-03-14T01:54:38.764Z,96.12
2017-03-14T01:55:39.130Z,96.03
2017-03-14T01:56:39.099Z,95.6
2017-03-14T01:57:39.134Z,95.36
2017-03-14T01:58:39.050Z,95.46
2017-03-14T01:59:39.035Z,95.55
2017-03-14T02:00:39.013Z,95.55
2017-03-14T02:01:38.979Z,95.46
2017-03-14T02:02:38.952Z,95.55
2017-03-14T02:03:38.987Z,95.55
2017-03-14T02:04:38.909Z,96.31
2017-03-14T02:05:38.888Z,96.12
2017-03-14T02:06:38.865Z,96.22
2017-03-14T02:07:38.840Z,96.12
2017-03-14T02:08:38.826Z,96.12
2017-03-14T02:09:38.797Z,95.94
2017-03-14T02:10:38.766Z,95.94
2017-03-14T02:11:38.801Z,96.12
2017-03-14T02:12:38.773Z,96.12
2017-03-14T02:13:38.746Z,96.08
2017-03-14T02:14:38.681Z,96.17
2017-03-14T02:15:38.650Z,96.17
2017-03-14T02:16:38.625Z,96.08
2017-03-14T02:17:38.650Z,96.26
2017-03-14T02:18:38.576Z,95.89
2017-03-14T02:19:38.555Z,95.89
2017-03-14T02:20:39.382Z,96.45
2017-03-14T02:21:38.509Z,95.89
2017-03-14T02:22:38.483Z,96.45
2017-03-14T02:23:38.456Z,96.55
2017-03-14T02:24:38.440Z,96.45
2017-03-14T02:25:38.410Z,96.26
2017-03-14T02:26:38.386Z,96.36
2017-03-14T02:27:38.363Z,95.89
2017-03-14T02:28:38.338Z,96.93
2017-03-14T02:29:38.315Z,96.08
2017-03-14T02:30:38.295Z,96.64
2017-03-14T02:31:38.266Z,96.64
2017-03-14T02:32:39.747Z,96.45
2017-03-14T02:33:38.224Z,96.55
2017-03-14T02:34:38.200Z,96.36
2017-03-14T02:35:38.170Z,96.26
2017-03-14T02:36:38.143Z,96.36
2017-03-14T02:37:38.131Z,96.36
2017-03-14T02:38:38.096Z,96.45
2017-03-14T02:39:38.082Z,96.36
2017-03-14T02:40:38.050Z,96.36
2017-03-14T02:41:38.032Z,96.17
2017-03-14T02:42:38.001Z,96.26
2017-03-14T02:43:37.983Z,96.45
2017-03-14T02:44:37.960Z,96.45
2017-03-14T02:45:39.234Z,96.83
2017-03-14T02:46:38.107Z,97.41
2017-03-14T02:47:37.887Z,96.93
2017-03-14T02:48:37.862Z,96.93
2017-03-14T02:49:37.838Z,96.93
2017-03-14T02:50:37.814Z,96.55
2017-03-14T02:51:37.788Z,96.55
2017-03-14T02:52:37.386Z,96.45
2017-03-14T02:53:37.742Z,96.36
2017-03-14T02:54:37.720Z,96.36
2017-03-14T02:55:37.695Z,96.45
2017-03-14T02:56:37.668Z,96.26
2017-03-14T02:57:37.645Z,96.26
2017-03-14T02:58:37.243Z,96.64
2017-03-14T02:59:37.598Z,96.36
2017-03-14T03:00:37.575Z,96.74
2017-03-14T03:01:37.551Z,96.17
2017-03-14T03:02:37.523Z,96.26
2017-03-14T03:03:37.498Z,96.26
2017-03-14T03:04:37.092Z,96.45
2017-03-14T03:05:37.715Z,97.02
2017-03-14T03:06:37.430Z,97.02
2017-03-14T03:07:37.434Z,96.88
2017-03-14T03:08:37.388Z,97.26
2017-03-14T03:09:37.355Z,97.36
2017-03-14T03:10:37.331Z,97.55
2017-03-14T03:11:37.307Z,97.36
2017-03-14T03:12:37.284Z,97.26
2017-03-14T03:13:37.261Z,97.26
2017-03-14T03:14:37.235Z,97.36
2017-03-14T03:15:37.205Z,97.26
2017-03-14T03:16:37.186Z,97.07
2017-03-14T03:17:37.375Z,97.07
2017-03-14T03:18:37.139Z,97.64
2017-03-14T03:19:37.115Z,97.55
2017-03-14T03:20:37.140Z,97.55
2017-03-14T03:21:37.063Z,97.74
2017-03-14T03:22:37.055Z,98.11
2017-03-14T03:23:37.022Z,98.02
2017-03-14T03:24:36.996Z,98.11
2017-03-14T03:25:36.971Z,97.64
2017-03-14T03:26:36.944Z,97.74
2017-03-14T03:27:36.544Z,97.83
2017-03-14T03:28:36.951Z,97.83
2017-03-14T03:29:36.910Z,97.92
2017-03-14T03:30:36.847Z,98.21
2017-03-14T03:31:36.442Z,98.3
2017-03-14T03:32:36.802Z,98.11
2017-03-14T03:33:36.773Z,98.11
2017-03-14T03:34:36.752Z,98.3
2017-03-14T03:35:36.729Z,98.59
2017-03-14T03:36:36.707Z,98.3
2017-03-14T03:37:36.676Z,98.4
2017-03-14T03:38:36.661Z,97.83
2017-03-14T03:39:36.255Z,98.59
2017-03-14T03:40:36.607Z,98.59
2017-03-14T03:41:36.577Z,97.83
2017-03-14T03:42:37.510Z,98.68
2017-03-14T03:43:36.539Z,98.68
2017-03-14T03:44:36.510Z,98.87
2017-03-14T03:45:36.479Z,98.87
2017-03-14T03:46:36.459Z,98.78
2017-03-14T03:47:36.436Z,99.26
2017-03-14T03:48:36.417Z,98.49
2017-03-14T03:49:36.390Z,98.68
2017-03-14T03:50:36.367Z,98.97
2017-03-14T03:51:36.337Z,98.97
2017-03-14T03:52:36.312Z,98.59
2017-03-14T03:53:36.291Z,98.49
2017-03-14T03:54:36.263Z,98.78
2017-03-14T03:55:35.857Z,98.4
2017-03-14T03:56:36.217Z,98.4
2017-03-14T03:57:36.194Z,99.16
2017-03-14T03:58:36.177Z,98.45
2017-03-14T03:59:36.143Z,98.59
2017-03-14T04:00:36.115Z,98.78
2017-03-14T04:01:36.093Z,98.97
2017-03-14T04:02:36.071Z,98.73
2017-03-14T04:03:36.049Z,98.97
2017-03-14T04:04:36.022Z,98.78
2017-03-14T04:05:35.998Z,98.73
2017-03-14T04:06:35.973Z,98.78
2017-03-14T04:07:35.954Z,98.54
2017-03-14T04:08:35.920Z,99.11
2017-03-14T04:09:35.902Z,98.83
2017-03-14T04:10:35.880Z,98.54
2017-03-14T04:11:35.853Z,98.59
2017-03-14T04:12:35.828Z,98.64
2017-03-14T04:13:35.804Z,98.45
2017-03-14T04:14:35.785Z,99.02
2017-03-14T04:15:35.758Z,98.45
2017-03-14T04:16:35.730Z,98.26
2017-03-14T04:17:35.708Z,98.54
2017-03-14T04:18:35.685Z,98.45
2017-03-14T04:19:35.668Z,98.45
2017-03-14T04:20:35.642Z,98.35
2017-03-14T04:21:35.615Z,98.64
2017-03-14T04:22:35.587Z,98.73
2017-03-14T04:23:35.564Z,98.26
2017-03-14T04:24:35.541Z,98.16
2017-03-14T04:25:35.518Z,98.64
2017-03-14T04:26:35.495Z,98.35
2017-03-14T04:27:35.467Z,98.54
2017-03-14T04:28:35.446Z,98.16
2017-03-14T04:29:35.413Z,97.97
2017-03-14T04:30:35.394Z,97.78
2017-03-14T04:31:35.388Z,97.88
2017-03-14T04:32:35.349Z,97.6
2017-03-14T04:33:35.326Z,98.07
2017-03-14T04:34:35.299Z,97.5
2017-03-14T04:35:35.280Z,97.78
2017-03-14T04:36:35.249Z,97.69
2017-03-14T04:37:35.230Z,97.69
2017-03-14T04:38:35.207Z,97.88
2017-03-14T04:39:35.177Z,97.6
2017-03-14T04:40:35.163Z,97.88
2017-03-14T04:41:35.132Z,97.5
2017-03-14T04:42:35.106Z,97.5
2017-03-14T04:43:35.088Z,97.22
2017-03-14T04:44:35.064Z,97.41
2017-03-14T04:45:35.031Z,97.6
2017-03-14T04:46:35.011Z,97.6
2017-03-14T04:47:34.987Z,97.78
2017-03-14T04:48:34.962Z,97.02
2017-03-14T04:49:34.957Z,97.02
2017-03-14T04:50:34.913Z,97.22
2017-03-14T04:51:34.900Z,96.83
2017-03-14T04:52:34.865Z,96.93
2017-03-14T04:53:34.840Z,97.22
2017-03-14T04:54:34.820Z,97.22
2017-03-14T04:55:34.793Z,97.41
2017-03-14T04:56:34.771Z,97.02
2017-03-14T04:57:34.745Z,97.22
2017-03-14T04:58:34.726Z,96.83
2017-03-14T04:59:34.753Z,96.83
2017-03-14T05:00:34.684Z,96.83
2017-03-14T05:01:34.650Z,96.93
2017-03-14T05:02:34.625Z,97.31
2017-03-14T05:03:34.607Z,97.5
2017-03-14T05:04:34.583Z,96.93
2017-03-14T05:05:34.557Z,97.5
2017-03-14T05:06:34.532Z,97.12
2017-03-14T05:07:34.509Z,97.31
2017-03-14T05:08:35.342Z,97.12
2017-03-14T05:09:34.464Z,97.41
2017-03-14T05:10:34.439Z,97.41
2017-03-14T05:11:34.415Z,96.88
2017-03-14T05:12:34.392Z,97.26
2017-03-14T05:13:34.360Z,97.31
2017-03-14T05:14:34.338Z,97.36
2017-03-14T05:15:34.321Z,96.88
2017-03-14T05:16:34.294Z,96.88
2017-03-14T05:17:34.269Z,97.17
2017-03-14T05:18:34.242Z,97.26
2017-03-14T05:19:34.216Z,97.07
2017-03-14T05:20:34.193Z,97.17
2017-03-14T05:21:34.211Z,97.07
2017-03-14T05:22:34.147Z,96.97
2017-03-14T05:23:34.121Z,97.26
2017-03-14T05:24:34.096Z,97.55
2017-03-14T05:25:34.069Z,97.64
2017-03-14T05:26:34.048Z,97.64
2017-03-14T05:27:34.024Z,97.45
2017-03-14T05:28:34.004Z,97.45
2017-03-14T05:29:33.983Z,97.26
2017-03-14T05:30:33.957Z,97.45
2017-03-14T05:31:33.926Z,96.97
2017-03-14T05:32:33.911Z,97.07
2017-03-14T05:33:33.886Z,97.17
2017-03-14T05:34:33.866Z,97.17
2017-03-14T05:35:33.879Z,97.26
2017-03-14T05:36:33.804Z,97.26
2017-03-14T05:37:33.782Z,97.31
2017-03-14T05:38:33.760Z,96.97
2017-03-14T05:39:33.729Z,96.88
2017-03-14T05:40:33.711Z,97.07
2017-03-14T05:41:33.693Z,96.78
2017-03-14T05:42:33.658Z,97.36
2017-03-14T05:43:33.645Z,97.36
2017-03-14T05:44:33.614Z,97.22
2017-03-14T05:45:33.602Z,97.17
2017-03-14T05:46:33.586Z,97.41
2017-03-14T05:47:33.543Z,97.41
2017-03-14T05:48:33.554Z,97.5
2017-03-14T05:49:33.494Z,97.41
2017-03-14T05:50:33.471Z,97.22
2017-03-14T05:51:33.471Z,96.93
2017-03-14T05:52:33.417Z,97.5
2017-03-14T05:53:33.395Z,96.93
2017-03-14T05:54:33.369Z,97.02
2017-03-14T05:55:33.351Z,96.93
2017-03-14T05:56:33.321Z,96.83
2017-03-14T05:57:33.354Z,96.74
2017-03-14T05:58:33.275Z,96.83
2017-03-14T05:59:33.252Z,96.55
2017-03-14T06:00:33.234Z,96.64
2017-03-14T06:01:33.200Z,96.45
2017-03-14T06:02:33.218Z,96.17
2017-03-14T06:03:33.209Z,96.45
2017-03-14T06:04:33.129Z,95.98
2017-03-14T06:05:33.109Z,96.26
2017-03-14T06:06:33.085Z,96.45
2017-03-14T06:07:33.062Z,96.26
2017-03-14T06:08:33.044Z,96.17
2017-03-14T06:09:33.016Z,96.83
2017-03-14T06:10:32.986Z,97.02
2017-03-14T06:11:32.956Z,96.36
2017-03-14T06:12:32.942Z,96.17
2017-03-14T06:13:32.915Z,96.26
2017-03-14T06:14:32.945Z,96.26
2017-03-14T06:15:32.866Z,96.26
2017-03-14T06:16:32.857Z,95.79
2017-03-14T06:17:32.822Z,95.98
2017-03-14T06:18:32.795Z,95.89
2017-03-14T06:19:32.769Z,95.98
2017-03-14T06:20:32.746Z,96.08
2017-03-14T06:21:32.725Z,96.08
2017-03-14T06:22:32.741Z,95.98
2017-03-14T06:23:32.674Z,95.98
2017-03-14T06:24:32.658Z,95.89
2017-03-14T06:25:32.638Z,96.08
2017-03-14T06:26:32.602Z,95.98
2017-03-14T06:27:32.593Z,96.26
2017-03-14T06:28:32.554Z,96.17
2017-03-14T06:29:32.533Z,95.89
2017-03-14T06:30:32.507Z,96.08
2017-03-14T06:31:32.485Z,95.7
2017-03-14T06:32:32.466Z,96.08
2017-03-14T06:33:32.497Z,95.89
2017-03-14T06:34:32.417Z,96.17
2017-03-14T06:35:32.387Z,95.51
2017-03-14T06:36:32.362Z,95.6
2017-03-14T06:37:32.394Z,95.51
2017-03-14T06:38:32.322Z,95.51
2017-03-14T06:39:32.295Z,95.89
2017-03-14T06:40:32.265Z,95.51
2017-03-14T06:41:32.250Z,95.51
2017-03-14T06:42:32.225Z,95.41
2017-03-14T06:43:32.200Z,95.51
2017-03-14T06:44:32.179Z,95.51
2017-03-14T06:45:32.154Z,95.12
2017-03-14T06:46:32.124Z,95.22
2017-03-14T06:47:32.155Z,95.31
2017-03-14T06:48:32.079Z,95.31
2017-03-14T06:49:32.053Z,95.31
2017-03-14T06:50:32.036Z,95.31
2017-03-14T06:51:32.004Z,95.31
2017-03-14T06:52:31.980Z,95.7
2017-03-14T06:53:31.960Z,95.51
2017-03-14T06:54:31.945Z,95.31
2017-03-14T06:55:31.915Z,94.84
2017-03-14T06:56:31.890Z,94.84
2017-03-14T06:57:31.867Z,95.51
2017-03-14T06:58:31.835Z,95.6
2017-03-14T06:59:31.816Z,95.12
2017-03-14T07:00:31.795Z,95.31
2017-03-14T07:01:31.775Z,94.84
2017-03-14T07:02:31.745Z,95.03
2017-03-14T07:03:31.726Z,94.74
2017-03-14T07:04:31.700Z,94.42
2017-03-14T07:05:31.675Z,95.08
2017-03-14T07:06:31.660Z,94.42
2017-03-14T07:07:31.628Z,94.32
2017-03-14T07:08:31.607Z,94.08
2017-03-14T07:09:31.580Z,93.89
2017-03-14T07:10:31.557Z,93.51
2017-03-14T07:11:31.536Z,92.56
2017-03-14T07:12:31.513Z,92.66
2017-03-14T07:13:31.486Z,92.46
2017-03-14T07:14:32.166Z,91.33
2017-03-14T07:15:31.447Z,91.33
2017-03-14T07:16:31.428Z,91.33
2017-03-14T07:17:31.395Z,91.33
2017-03-14T07:18:31.377Z,90.56
2017-03-14T07:19:31.354Z,90.66
2017-03-14T07:20:31.327Z,89.85
2017-03-14T07:21:31.306Z,89.66
2017-03-14T07:22:31.289Z,89.75
2017-03-14T07:23:31.259Z,89.37
2017-03-14T07:24:31.238Z,89.09
2017-03-14T07:25:31.215Z,89
2017-03-14T07:26:31.194Z,89.14
2017-03-14T07:27:31.221Z,88.46
2017-03-14T07:28:30.769Z,87.23
2017-03-14T07:29:30.743Z,86.99
2017-03-14T07:30:31.153Z,86.04
2017-03-14T07:31:31.082Z,85.22
2017-03-14T07:32:31.064Z,84.27
2017-03-14T07:33:31.041Z,82.12
2017-03-14T07:34:31.022Z,81.17
2017-03-14T07:35:30.994Z,80.83
2017-03-14T07:36:30.975Z,79.49
2017-03-14T07:37:30.956Z,78.3
2017-03-14T07:38:30.937Z,77.44
2017-03-14T07:39:30.919Z,76.23
2017-03-14T07:40:30.906Z,75.18
2017-03-14T07:41:30.871Z,75.72
2017-03-14T07:42:30.852Z,75.62
2017-03-14T07:43:30.833Z,76.01
2017-03-14T07:44:30.819Z,76.64
2017-03-14T07:45:30.792Z,77.4
2017-03-14T07:46:30.779Z,77.74
2017-03-14T07:47:30.758Z,77.93
2017-03-14T07:48:30.729Z,77.83
2017-03-14T07:49:30.709Z,78.37
2017-03-14T07:50:30.689Z,78.56
2017-03-14T07:51:30.722Z,78.94
2017-03-14T07:52:30.654Z,79.66
2017-03-14T07:53:30.621Z,79.28
2017-03-14T07:54:30.606Z,80.13
2017-03-14T07:55:30.582Z,79.85
2017-03-14T07:56:30.567Z,80.61
2017-03-14T07:57:30.159Z,80.57
2017-03-14T07:58:30.517Z,80.86
2017-03-14T07:59:30.501Z,81.24
2017-03-14T08:00:30.474Z,81.24
2017-03-14T08:01:30.453Z,81.71
2017-03-14T08:02:30.434Z,82
2017-03-14T08:03:30.412Z,81.71
2017-03-14T08:04:30.387Z,81.9
2017-03-14T08:05:30.364Z,81.9
2017-03-14T08:06:30.353Z,82.09
2017-03-14T08:07:30.320Z,82.57
2017-03-14T08:08:30.328Z,82.48
2017-03-14T08:09:30.285Z,82.95
2017-03-14T08:10:30.262Z,83.1
2017-03-14T08:11:29.857Z,83.04
2017-03-14T08:12:30.220Z,83.62
2017-03-14T08:13:34.203Z,83.52
2017-03-14T08:14:30.175Z,83.33
2017-03-14T08:15:30.156Z,83.39
2017-03-14T08:16:31.281Z,83.67
2017-03-14T08:17:30.105Z,83.62
2017-03-14T08:18:30.089Z,83.04
2017-03-14T08:19:30.057Z,83.71
2017-03-14T08:20:30.041Z,83.52
2017-03-14T08:21:30.014Z,83.23
2017-03-14T08:22:29.993Z,83.71
2017-03-14T08:23:29.976Z,83.62
2017-03-14T08:24:29.943Z,83.9
2017-03-14T08:25:29.930Z,83.81
2017-03-14T08:26:29.912Z,83.71
2017-03-14T08:27:29.889Z,84
2017-03-14T08:28:29.859Z,83.9
2017-03-14T08:29:30.043Z,83.81
2017-03-14T08:30:29.867Z,83.33
2017-03-14T08:31:29.796Z,83.52
2017-03-14T08:32:29.776Z,83.04
2017-03-14T08:33:29.756Z,83.33
2017-03-14T08:34:29.732Z,83.04
2017-03-14T08:35:29.709Z,83.14
2017-03-14T08:36:29.684Z,82.57
2017-03-14T08:37:29.709Z,83.04
2017-03-14T08:38:29.642Z,82.95
2017-03-14T08:39:29.631Z,82.95
2017-03-14T08:40:29.624Z,82.67
2017-03-14T08:41:29.574Z,83.14
2017-03-14T08:42:29.556Z,82.48
2017-03-14T08:43:29.538Z,82.51
2017-03-14T08:44:29.125Z,82.28
2017-03-14T08:45:29.490Z,82.7
2017-03-14T08:46:29.463Z,82.67
2017-03-14T08:47:29.438Z,82.51
2017-03-14T08:48:29.420Z,82.32
2017-03-14T08:49:29.396Z,82.51
2017-03-14T08:50:29.374Z,81.85
2017-03-14T08:51:29.354Z,81.76
2017-03-14T08:52:29.337Z,81.76
2017-03-14T08:53:29.309Z,81.95
2017-03-14T08:54:29.289Z,82.14
2017-03-14T08:55:29.274Z,82.14
2017-03-14T08:56:29.246Z,81.95
2017-03-14T08:57:29.221Z,81.85
2017-03-14T08:58:29.198Z,81.85
2017-03-14T08:59:29.184Z,81.37
2017-03-14T09:00:29.163Z,81.37
2017-03-14T09:01:29.130Z,81.66
2017-03-14T09:02:29.114Z,81.47
2017-03-14T09:03:29.092Z,81.47
2017-03-14T09:04:29.069Z,81.47
2017-03-14T09:05:29.046Z,81.47
2017-03-14T09:06:29.021Z,80.33
2017-03-14T09:07:29.005Z,80.42
2017-03-14T09:08:28.976Z,80.52
2017-03-14T09:09:28.959Z,80.42
2017-03-14T09:10:28.522Z,80.61
2017-03-14T09:11:28.972Z,80.8
2017-03-14T09:12:28.895Z,80.42
2017-03-14T09:13:28.892Z,80.52
2017-03-14T09:14:28.900Z,80.42
2017-03-14T09:15:28.832Z,80.33
2017-03-14T09:16:28.806Z,80.23
2017-03-14T09:17:28.785Z,80.61
2017-03-14T09:18:28.774Z,80.33
2017-03-14T09:19:28.743Z,80.13
2017-03-14T09:20:28.333Z,80.33
2017-03-14T09:21:28.698Z,80.23
2017-03-14T09:22:28.677Z,79.85
2017-03-14T09:23:28.655Z,79.94
2017-03-14T09:24:28.640Z,79.66
2017-03-14T09:25:28.615Z,79.38
2017-03-14T09:26:28.588Z,79.32
2017-03-14T09:27:28.567Z,79.32
2017-03-14T09:28:28.546Z,79.75
2017-03-14T09:29:28.533Z,79.47
2017-03-14T09:30:28.501Z,79.51
2017-03-14T09:31:28.099Z,79.7
2017-03-14T09:32:28.459Z,79.7
2017-03-14T09:33:28.439Z,79.6
2017-03-14T09:34:28.040Z,79.13
2017-03-14T09:35:28.416Z,79.03
2017-03-14T09:36:28.368Z,79.27
2017-03-14T09:37:28.353Z,78.5
2017-03-14T09:38:28.333Z,77.97
2017-03-14T09:39:28.312Z,76.77
2017-03-14T09:40:29.388Z,75.66
2017-03-14T09:41:28.268Z,73.37
2017-03-14T09:42:28.248Z,72.45
2017-03-14T09:43:28.227Z,72.07
2017-03-14T09:44:28.205Z,70.67
2017-03-14T09:45:28.189Z,69.91
2017-03-14T09:46:28.163Z,68.9
2017-03-14T09:47:28.153Z,66.92
2017-03-14T09:48:28.149Z,66.25
2017-03-14T09:49:28.110Z,65.52
2017-03-14T09:50:28.089Z,64.31
2017-03-14T09:51:28.077Z,62.87
2017-03-14T09:52:28.052Z,62.14
2017-03-14T09:53:28.041Z,61.37
2017-03-14T09:54:28.017Z,61.37
2017-03-14T09:55:28.001Z,60.25
2017-03-14T09:56:27.982Z,59.13
2017-03-14T09:57:27.964Z,59.06
2017-03-14T09:58:27.953Z,58.3
2017-03-14T09:59:27.947Z,57.28
2017-03-14T10:00:27.967Z,55.45
2017-03-14T10:01:27.904Z,54.68
2017-03-14T10:02:27.884Z,54.13
2017-03-14T10:03:27.872Z,54.21
2017-03-14T10:04:27.850Z,53.56
2017-03-14T10:05:27.891Z,53.91
2017-03-14T10:06:27.817Z,54.94
2017-03-14T10:07:28.204Z,55.42
2017-03-14T10:08:27.787Z,54.82
2017-03-14T10:09:27.770Z,56.61
2017-03-14T10:10:27.765Z,57.73
2017-03-14T10:11:27.755Z,58.18
2017-03-14T10:12:27.723Z,59.14
2017-03-14T10:13:27.715Z,59.78
2017-03-14T10:14:28.044Z,60.45
2017-03-14T10:15:27.675Z,60.83
2017-03-14T10:16:27.673Z,60.99
2017-03-14T10:17:27.665Z,61.76
2017-03-14T10:18:27.623Z,61.38
2017-03-14T10:19:27.608Z,61.47
2017-03-14T10:20:27.635Z,61.76
2017-03-14T10:21:27.582Z,62.43
2017-03-14T10:22:27.478Z,62.52
2017-03-14T10:23:27.863Z,62.11
2017-03-14T10:24:27.427Z,62.4
2017-03-14T10:25:27.410Z,62.68
2017-03-14T10:26:27.392Z,62.59
2017-03-14T10:27:27.375Z,62.68
2017-03-14T10:28:27.356Z,62.97
2017-03-14T10:29:27.688Z,64.02
2017-03-14T10:30:27.319Z,63.35
2017-03-14T10:31:27.312Z,63.07
2017-03-14T10:32:27.274Z,63.93
2017-03-14T10:33:27.259Z,63.64
2017-03-14T10:34:27.247Z,64.18
2017-03-14T10:35:27.226Z,64.09
2017-03-14T10:36:27.199Z,64.65
2017-03-14T10:37:27.180Z,64.28
2017-03-14T10:38:27.164Z,64.18
2017-03-14T10:39:27.145Z,63.89
2017-03-14T10:40:27.120Z,64.65
2017-03-14T10:41:26.795Z,64.12
2017-03-14T10:42:27.082Z,64.31
2017-03-14T10:43:27.070Z,63.93
2017-03-14T10:44:27.038Z,63.45
2017-03-14T10:45:27.030Z,63.73
2017-03-14T10:46:27.011Z,64.12
2017-03-14T10:47:26.976Z,64.02
2017-03-14T10:48:26.962Z,64.12
2017-03-14T10:49:26.949Z,63.93
2017-03-14T10:50:26.929Z,63.93
2017-03-14T10:51:26.908Z,64.02
2017-03-14T10:52:26.887Z,64.31
2017-03-14T10:53:26.931Z,64.12
2017-03-14T10:54:26.845Z,64.02
2017-03-14T10:55:26.825Z,64.69
2017-03-14T10:56:26.807Z,64.4
2017-03-14T10:57:26.491Z,64.5
2017-03-14T10:58:26.790Z,64.12
2017-03-14T10:59:26.750Z,64.31
2017-03-14T11:00:26.728Z,64.31
2017-03-14T11:01:26.710Z,64.78
2017-03-14T11:02:26.686Z,64.4
2017-03-14T11:03:26.664Z,64.5
2017-03-14T11:04:26.342Z,64.5
2017-03-14T11:05:26.629Z,64.31
2017-03-14T11:06:26.654Z,64.78
2017-03-14T11:07:26.585Z,64.69
2017-03-14T11:08:26.565Z,64.69
2017-03-14T11:09:26.548Z,64.31
2017-03-14T11:10:26.526Z,64.5
2017-03-14T11:11:26.507Z,64.02
2017-03-14T11:12:26.484Z,64.22
2017-03-14T11:13:26.172Z,63.83
2017-03-14T11:14:26.448Z,63.54
2017-03-14T11:15:26.427Z,63.64
2017-03-14T11:16:26.416Z,63.54
2017-03-14T11:17:26.387Z,63.76
2017-03-14T11:18:26.375Z,63.57
2017-03-14T11:19:26.344Z,63.76
2017-03-14T11:20:26.322Z,63.57
2017-03-14T11:21:26.304Z,64.05
2017-03-14T11:22:26.281Z,63.1
2017-03-14T11:23:26.265Z,62.81
2017-03-14T11:24:26.244Z,63.29
2017-03-14T11:25:26.275Z,62.81
2017-03-14T11:26:26.204Z,62.71
2017-03-14T11:27:26.240Z,62.97
2017-03-14T11:28:25.863Z,62.9
2017-03-14T11:29:26.148Z,62.9
2017-03-14T11:30:26.122Z,63.29
2017-03-14T11:31:26.109Z,63.57
2017-03-14T11:32:26.084Z,63
2017-03-14T11:33:26.070Z,63.39
2017-03-14T11:34:26.044Z,62.9
2017-03-14T11:35:26.027Z,62.9
2017-03-14T11:36:26.152Z,62.71
2017-03-14T11:37:25.982Z,62.71
2017-03-14T11:38:25.967Z,62.9
2017-03-14T11:39:25.942Z,62.65
2017-03-14T11:40:25.930Z,62.65
2017-03-14T11:41:25.907Z,62.27
2017-03-14T11:42:25.581Z,62.17
2017-03-14T11:43:25.878Z,62.27
2017-03-14T11:44:25.846Z,61.41
2017-03-14T11:45:25.826Z,61.6
2017-03-14T11:46:25.818Z,61.31
2017-03-14T11:47:25.779Z,61.63
2017-03-14T11:48:25.767Z,61.63
2017-03-14T11:49:25.747Z,60.96
2017-03-14T11:50:25.726Z,60.86
2017-03-14T11:51:25.409Z,60.96
2017-03-14T11:52:25.687Z,60.86
2017-03-14T11:53:25.670Z,59.91
2017-03-14T11:54:25.647Z,60.22
2017-03-14T11:55:25.632Z,60.13
2017-03-14T11:56:25.613Z,60.41
2017-03-14T11:57:25.593Z,59.45
2017-03-14T11:58:25.575Z,59.77
2017-03-14T11:59:25.555Z,58.81
2017-03-14T12:00:25.538Z,59.11
2017-03-14T12:01:25.516Z,58.62
2017-03-14T12:02:25.513Z,58.24
2017-03-14T12:03:25.492Z,57.95
2017-03-14T12:04:25.467Z,57.95
2017-03-14T12:05:25.456Z,58.62
2017-03-14T12:06:25.525Z,58.62
2017-03-14T12:07:25.407Z,58.44
2017-03-14T12:08:25.399Z,58.44
2017-03-14T12:09:25.369Z,58.34
2017-03-14T12:10:25.352Z,58.81
2017-03-14T12:11:25.330Z,58.53
2017-03-14T12:12:25.323Z,58.53
2017-03-14T12:13:25.300Z,58.62
2017-03-14T12:14:25.279Z,57.95
2017-03-14T12:15:25.261Z,58.05
2017-03-14T12:16:25.244Z,58.05
2017-03-14T12:17:25.225Z,58.05
2017-03-14T12:18:25.204Z,58.15
2017-03-14T12:19:25.184Z,58.34
2017-03-14T12:20:24.866Z,58.15
2017-03-14T12:21:25.156Z,58.44
2017-03-14T12:22:25.139Z,58.69
2017-03-14T12:23:25.122Z,58.44
2017-03-14T12:24:25.160Z,58.24
2017-03-14T12:25:25.073Z,58.15
2017-03-14T12:26:26.218Z,58.12
2017-03-14T12:27:25.045Z,58.34
2017-03-14T12:28:25.015Z,58.34
2017-03-14T12:29:25.009Z,58.34
2017-03-14T12:30:24.984Z,58.15
2017-03-14T12:31:24.962Z,58.62
2017-03-14T12:32:24.944Z,58.44
2017-03-14T12:33:24.932Z,58.34
2017-03-14T12:34:24.905Z,58.34
2017-03-14T12:35:24.896Z,58.34
2017-03-14T12:36:24.871Z,58.44
2017-03-14T12:37:24.869Z,58.15
2017-03-14T12:38:24.841Z,58.24
2017-03-14T12:39:24.816Z,58.24
2017-03-14T12:40:24.797Z,58.15
2017-03-14T12:41:24.780Z,57.95
2017-03-14T12:42:24.763Z,58.34
2017-03-14T12:43:24.736Z,58.34
2017-03-14T12:44:24.737Z,58.34
2017-03-14T12:45:24.705Z,58.34
2017-03-14T12:46:24.684Z,58.44
2017-03-14T12:47:24.669Z,58.34
2017-03-14T12:48:24.652Z,58.44
2017-03-14T12:49:24.631Z,58.88
2017-03-14T12:50:24.608Z,59.17
2017-03-14T12:51:24.593Z,58.79
2017-03-14T12:52:24.583Z,59.11
2017-03-14T12:53:24.557Z,58.88
2017-03-14T12:54:24.241Z,59.17
2017-03-14T12:55:24.520Z,59.55